TAF

Looking Back 6 Hours

Worst Weather Category
LocationTimeVisiblityCeilingWeatherWind SpeedWind Gust
KPBF150520Z625000NONE S 8S 16

  • TAFPBF TAF KPBF 150520Z 1506/1606 16004KT P6SM BKN250
          FM151400 19008G16KT P6SM SCT050 BKN250
          FM160100 18005KT P6SM BKN250 =